createdAt,value
2017-04-08T00:00:39.509Z,0
2017-04-08T00:01:47.593Z,0
2017-04-08T00:02:55.683Z,0
2017-04-08T00:04:03.768Z,0
2017-04-08T00:05:11.853Z,0
2017-04-08T00:06:19.941Z,0
2017-04-08T00:07:28.028Z,0
2017-04-08T00:08:36.117Z,0
2017-04-08T00:09:44.207Z,0
2017-04-08T00:10:52.454Z,0
2017-04-08T00:12:00.382Z,0
2017-04-08T00:13:08.468Z,0
2017-04-08T00:14:16.569Z,0
2017-04-08T00:15:24.657Z,0
2017-04-08T00:16:32.745Z,0
2017-04-08T00:17:40.824Z,0
2017-04-08T00:18:48.912Z,0
2017-04-08T00:19:56.998Z,0
2017-04-08T00:21:05.080Z,0
2017-04-08T00:22:13.168Z,0
2017-04-08T00:23:21.257Z,0
2017-04-08T00:24:29.353Z,0
2017-04-08T00:25:37.425Z,0
2017-04-08T00:26:45.704Z,0
2017-04-08T00:27:53.601Z,0
2017-04-08T00:29:01.683Z,0
2017-04-08T00:30:09.771Z,0
2017-04-08T00:31:17.857Z,0
2017-04-08T00:32:25.940Z,0
2017-04-08T00:33:34.024Z,0
2017-04-08T00:34:42.221Z,0
2017-04-08T00:35:50.561Z,0
2017-04-08T00:36:58.283Z,0
2017-04-08T00:38:06.373Z,0
2017-04-08T00:39:14.455Z,0
2017-04-08T00:40:22.538Z,0
2017-04-08T00:41:30.628Z,0
2017-04-08T00:42:38.714Z,0
2017-04-08T00:43:46.800Z,0
2017-04-08T00:44:54.880Z,0
2017-04-08T00:46:02.972Z,0
2017-04-08T00:47:11.058Z,0
2017-04-08T00:48:19.142Z,0
2017-04-08T00:49:27.226Z,0
2017-04-08T00:50:35.314Z,0
2017-04-08T00:51:43.402Z,0
2017-04-08T00:52:51.485Z,0
2017-04-08T00:53:59.578Z,0
2017-04-08T00:55:07.665Z,0
2017-04-08T00:56:15.745Z,0
2017-04-08T00:57:23.831Z,0
2017-04-08T00:58:31.923Z,0
2017-04-08T00:59:40.063Z,0
2017-04-08T01:00:48.496Z,0
2017-04-08T01:01:56.179Z,0
2017-04-08T01:03:04.264Z,0
2017-04-08T01:04:12.348Z,0
2017-04-08T01:05:20.434Z,0
2017-04-08T01:06:28.560Z,0
2017-04-08T01:07:36.607Z,0
2017-04-08T01:08:44.690Z,0
2017-04-08T01:09:52.779Z,0
2017-04-08T01:11:00.865Z,0
2017-04-08T01:12:08.949Z,0
2017-04-08T01:13:17.036Z,0
2017-04-08T01:14:25.124Z,0
2017-04-08T01:15:33.205Z,0
2017-04-08T01:16:41.439Z,0
2017-04-08T01:17:49.382Z,0
2017-04-08T01:18:57.467Z,0
2017-04-08T01:20:05.549Z,0
2017-04-08T01:21:13.643Z,0
2017-04-08T01:22:21.727Z,0
2017-04-08T01:23:29.833Z,0
2017-04-08T01:24:37.897Z,0
2017-04-08T01:25:45.988Z,0
2017-04-08T01:26:54.079Z,0
2017-04-08T01:28:02.163Z,0
2017-04-08T01:29:10.342Z,0
2017-04-08T01:30:18.337Z,0
2017-04-08T01:31:26.419Z,0
2017-04-08T01:32:34.507Z,0
2017-04-08T01:33:42.600Z,0
2017-04-08T01:34:50.690Z,0
2017-04-08T01:35:58.774Z,0
2017-04-08T01:37:06.860Z,0
2017-04-08T01:38:14.946Z,0
2017-04-08T01:39:23.027Z,0
2017-04-08T01:40:31.157Z,0
2017-04-08T01:41:39.213Z,0
2017-04-08T01:42:47.288Z,0
2017-04-08T01:43:55.372Z,0
2017-04-08T01:45:03.457Z,0
2017-04-08T01:46:11.553Z,0
2017-04-08T01:47:19.638Z,0
2017-04-08T01:48:27.722Z,0
2017-04-08T01:49:35.811Z,0
2017-04-08T01:50:43.896Z,0
2017-04-08T01:51:51.978Z,0
2017-04-08T01:53:00.070Z,0
2017-04-08T01:54:08.157Z,0
2017-04-08T01:55:16.239Z,0
2017-04-08T01:56:24.326Z,0
2017-04-08T01:57:32.419Z,0
2017-04-08T01:58:40.500Z,0
2017-04-08T01:59:48.586Z,0
2017-04-08T02:00:56.675Z,0
2017-04-08T02:02:04.762Z,0
2017-04-08T02:03:12.845Z,0
2017-04-08T02:04:20.929Z,0
2017-04-08T02:05:29.032Z,0
2017-04-08T02:06:37.116Z,0
2017-04-08T02:07:45.200Z,0
2017-04-08T02:08:53.293Z,0
2017-04-08T02:10:01.384Z,0
2017-04-08T02:11:09.472Z,0
2017-04-08T02:12:17.560Z,0
2017-04-08T02:13:25.645Z,0
2017-04-08T02:14:33.729Z,0
2017-04-08T02:15:41.823Z,0
2017-04-08T02:16:49.911Z,0
2017-04-08T02:17:57.998Z,0
2017-04-08T02:19:06.079Z,0
2017-04-08T02:20:14.176Z,0
2017-04-08T02:21:22.258Z,0
2017-04-08T02:22:30.346Z,0
2017-04-08T02:23:38.429Z,0
2017-04-08T02:24:46.521Z,0
2017-04-08T02:25:54.606Z,0
2017-04-08T02:27:02.687Z,0
2017-04-08T02:28:10.777Z,0
2017-04-08T02:29:18.863Z,0
2017-04-08T02:30:26.952Z,0
2017-04-08T02:31:35.043Z,0
2017-04-08T02:32:43.139Z,0
2017-04-08T02:33:51.233Z,0
2017-04-08T02:34:59.318Z,0
2017-04-08T02:36:07.404Z,0
2017-04-08T02:37:15.492Z,0
2017-04-08T02:38:23.579Z,0
2017-04-08T02:39:31.660Z,0
2017-04-08T02:40:39.750Z,0
2017-04-08T02:41:47.835Z,0
2017-04-08T02:42:55.915Z,0
2017-04-08T02:44:04.012Z,0
2017-04-08T02:45:12.097Z,0
2017-04-08T02:46:20.184Z,0
2017-04-08T02:47:28.267Z,0
2017-04-08T02:48:36.367Z,0
2017-04-08T02:49:44.450Z,0
2017-04-08T02:50:52.530Z,0
2017-04-08T02:52:00.627Z,0
2017-04-08T02:53:08.709Z,0
2017-04-08T02:54:16.793Z,0
2017-04-08T02:55:24.879Z,0
2017-04-08T02:56:32.969Z,0
2017-04-08T02:57:41.054Z,0
2017-04-08T02:58:49.138Z,0
2017-04-08T02:59:57.230Z,0
2017-04-08T03:01:05.317Z,0
2017-04-08T03:02:13.399Z,0
2017-04-08T03:03:21.491Z,0
2017-04-08T03:04:29.587Z,0
2017-04-08T03:05:37.658Z,0
2017-04-08T03:06:45.758Z,0
2017-04-08T03:07:53.843Z,0
2017-04-08T03:09:01.931Z,0
2017-04-08T03:10:10.021Z,0
2017-04-08T03:11:18.103Z,0
2017-04-08T03:12:26.193Z,0
2017-04-08T03:13:34.281Z,0
2017-04-08T03:14:42.363Z,0
2017-04-08T03:15:50.454Z,0
2017-04-08T03:16:58.539Z,0
2017-04-08T03:18:06.620Z,0
2017-04-08T03:19:14.712Z,0
2017-04-08T03:20:22.801Z,0
2017-04-08T03:21:30.885Z,0
2017-04-08T03:22:38.980Z,0
2017-04-08T03:23:47.058Z,0
2017-04-08T03:24:55.141Z,0
2017-04-08T03:26:03.239Z,0
2017-04-08T03:27:11.329Z,0
2017-04-08T03:28:19.404Z,0
2017-04-08T03:29:27.502Z,0
2017-04-08T03:30:35.581Z,0
2017-04-08T03:31:43.669Z,0
2017-04-08T03:32:51.758Z,0
2017-04-08T03:33:59.848Z,0
2017-04-08T03:35:07.932Z,0
2017-04-08T03:36:16.017Z,0
2017-04-08T03:37:24.105Z,0
2017-04-08T03:38:32.186Z,0
2017-04-08T03:39:40.275Z,0
2017-04-08T03:40:48.355Z,0
2017-04-08T03:41:56.448Z,0
2017-04-08T03:43:04.556Z,0
2017-04-08T03:44:12.625Z,0
2017-04-08T03:45:20.714Z,0
2017-04-08T03:46:28.796Z,0
2017-04-08T03:47:36.880Z,0
2017-04-08T03:48:44.979Z,0
2017-04-08T03:49:53.063Z,0
2017-04-08T03:51:01.156Z,0
2017-04-08T03:52:09.243Z,0
2017-04-08T03:53:17.327Z,0
2017-04-08T03:54:25.412Z,0
2017-04-08T03:55:33.500Z,0
2017-04-08T03:56:41.588Z,0
2017-04-08T03:57:49.669Z,0
2017-04-08T03:58:57.757Z,0
2017-04-08T04:00:05.844Z,0
2017-04-08T04:01:13.928Z,0
2017-04-08T04:02:22.010Z,0
2017-04-08T04:03:30.100Z,0
2017-04-08T04:04:38.184Z,0
2017-04-08T04:05:46.269Z,0
2017-04-08T04:06:54.358Z,0
2017-04-08T04:08:02.442Z,0
2017-04-08T04:09:10.617Z,0
2017-04-08T04:10:18.608Z,0
2017-04-08T04:11:26.698Z,0
2017-04-08T04:12:34.782Z,0
2017-04-08T04:13:42.867Z,0
2017-04-08T04:14:50.955Z,0
2017-04-08T04:15:59.044Z,0
2017-04-08T04:17:07.129Z,0
2017-04-08T04:18:15.212Z,0
2017-04-08T04:19:23.303Z,0
2017-04-08T04:20:31.386Z,0
2017-04-08T04:21:39.469Z,0
2017-04-08T04:22:47.558Z,0
2017-04-08T04:23:55.646Z,0
2017-04-08T04:25:03.726Z,0
2017-04-08T04:26:11.838Z,0
2017-04-08T04:27:19.901Z,0
2017-04-08T04:28:27.984Z,0
2017-04-08T04:29:36.070Z,0
2017-04-08T04:30:44.157Z,0
2017-04-08T04:31:52.243Z,0
2017-04-08T04:33:00.324Z,0
2017-04-08T04:34:08.414Z,0
2017-04-08T04:35:16.498Z,0
2017-04-08T04:36:24.584Z,0
2017-04-08T04:37:32.667Z,0
2017-04-08T04:38:40.755Z,0
2017-04-08T04:39:48.844Z,0
2017-04-08T04:40:56.926Z,0
2017-04-08T04:42:05.012Z,0
2017-04-08T04:43:13.168Z,0
2017-04-08T04:44:21.185Z,0
2017-04-08T04:45:29.266Z,0
2017-04-08T04:46:37.354Z,0
2017-04-08T04:47:45.438Z,0
2017-04-08T04:48:53.523Z,0
2017-04-08T04:50:01.637Z,4
2017-04-08T04:51:09.693Z,4
2017-04-08T04:52:17.776Z,0
2017-04-08T04:53:25.859Z,0
2017-04-08T04:54:33.948Z,0
2017-04-08T04:55:42.035Z,0
2017-04-08T04:56:50.119Z,4
2017-04-08T04:57:58.204Z,4
2017-04-08T04:59:06.290Z,4
2017-04-08T05:00:14.374Z,0
2017-04-08T05:01:22.457Z,0
2017-04-08T05:02:30.546Z,4
2017-04-08T05:03:38.631Z,4
2017-04-08T05:04:46.715Z,4
2017-04-08T05:05:54.802Z,4
2017-04-08T05:07:02.893Z,4
2017-04-08T05:08:10.967Z,4
2017-04-08T05:09:19.051Z,4
2017-04-08T05:10:27.143Z,4
2017-04-08T05:11:35.226Z,4
2017-04-08T05:12:43.316Z,4
2017-04-08T05:13:51.397Z,8
2017-04-08T05:14:59.488Z,4
2017-04-08T05:16:07.567Z,4
2017-04-08T05:17:15.652Z,4
2017-04-08T05:18:23.737Z,8
2017-04-08T05:19:31.823Z,4
2017-04-08T05:20:39.901Z,4
2017-04-08T05:21:47.989Z,8
2017-04-08T05:22:56.073Z,8
2017-04-08T05:24:04.160Z,4
2017-04-08T05:25:12.250Z,8
2017-04-08T05:26:20.336Z,8
2017-04-08T05:27:28.417Z,12
2017-04-08T05:28:36.502Z,8
2017-04-08T05:29:44.587Z,8
2017-04-08T05:30:52.672Z,8
2017-04-08T05:32:00.751Z,8
2017-04-08T05:33:08.843Z,12
2017-04-08T05:34:16.930Z,8
2017-04-08T05:35:25.023Z,12
2017-04-08T05:36:33.106Z,8
2017-04-08T05:37:41.187Z,12
2017-04-08T05:38:49.272Z,12
2017-04-08T05:39:57.356Z,12
2017-04-08T05:41:05.446Z,12
2017-04-08T05:42:13.532Z,12
2017-04-08T05:43:21.613Z,12
2017-04-08T05:44:29.701Z,12
2017-04-08T05:45:37.786Z,16
2017-04-08T05:46:45.873Z,16
2017-04-08T05:47:53.959Z,16
2017-04-08T05:49:02.044Z,16
2017-04-08T05:50:10.126Z,16
2017-04-08T05:51:18.204Z,16
2017-04-08T05:52:26.289Z,20
2017-04-08T05:53:34.379Z,24
2017-04-08T05:54:42.466Z,24
2017-04-08T05:55:50.547Z,24
2017-04-08T05:56:58.632Z,24
2017-04-08T05:58:06.719Z,24
2017-04-08T05:59:14.802Z,20
2017-04-08T06:00:22.885Z,24
2017-04-08T06:01:30.979Z,20
2017-04-08T06:02:39.058Z,20
2017-04-08T06:03:47.144Z,24
2017-04-08T06:04:55.228Z,28
2017-04-08T06:06:03.316Z,36
2017-04-08T06:07:11.395Z,36
2017-04-08T06:08:19.481Z,32
2017-04-08T06:09:27.569Z,36
2017-04-08T06:10:35.657Z,40
2017-04-08T06:11:43.735Z,44
2017-04-08T06:12:51.824Z,48
2017-04-08T06:13:59.905Z,52
2017-04-08T06:15:07.985Z,52
2017-04-08T06:16:16.071Z,52
2017-04-08T06:17:24.159Z,48
2017-04-08T06:18:32.239Z,48
2017-04-08T06:19:40.326Z,48
2017-04-08T06:20:48.415Z,48
2017-04-08T06:21:56.497Z,48
2017-04-08T06:23:04.587Z,52
2017-04-08T06:24:12.673Z,48
2017-04-08T06:25:20.759Z,48
2017-04-08T06:26:28.840Z,52
2017-04-08T06:27:37.000Z,48
2017-04-08T06:28:45.013Z,52
2017-04-08T06:29:53.097Z,52
2017-04-08T06:31:01.180Z,56
2017-04-08T06:32:09.263Z,60
2017-04-08T06:33:17.349Z,60
2017-04-08T06:34:25.435Z,56
2017-04-08T06:35:33.517Z,56
2017-04-08T06:36:41.609Z,52
2017-04-08T06:37:49.695Z,52
2017-04-08T06:38:57.774Z,52
2017-04-08T06:40:05.862Z,56
2017-04-08T06:41:13.955Z,56
2017-04-08T06:42:22.039Z,56
2017-04-08T06:43:30.120Z,52
2017-04-08T06:44:38.206Z,52
2017-04-08T06:45:46.291Z,44
2017-04-08T06:46:54.376Z,40
2017-04-08T06:48:02.460Z,40
2017-04-08T06:49:10.550Z,40
2017-04-08T06:50:18.639Z,36
2017-04-08T06:51:26.721Z,40
2017-04-08T06:52:34.807Z,44
2017-04-08T06:53:42.968Z,48
2017-04-08T06:54:50.973Z,48
2017-04-08T06:55:59.058Z,48
2017-04-08T06:57:07.144Z,48
2017-04-08T06:58:15.227Z,56
2017-04-08T06:59:23.311Z,56
2017-04-08T07:00:31.399Z,64
2017-04-08T07:01:39.483Z,68
2017-04-08T07:02:48.152Z,68
2017-04-08T07:03:55.652Z,64
2017-04-08T07:05:03.735Z,60
2017-04-08T07:06:11.821Z,52
2017-04-08T07:07:19.910Z,48
2017-04-08T07:08:27.996Z,40
2017-04-08T07:09:36.083Z,40
2017-04-08T07:10:44.166Z,44
2017-04-08T07:11:52.249Z,52
2017-04-08T07:13:00.345Z,52
2017-04-08T07:14:08.417Z,56
2017-04-08T07:15:16.500Z,56
2017-04-08T07:16:24.589Z,56
2017-04-08T07:17:32.666Z,52
2017-04-08T07:18:40.752Z,48
2017-04-08T07:19:48.840Z,40
2017-04-08T07:20:56.933Z,36
2017-04-08T07:22:05.010Z,36
2017-04-08T07:23:13.090Z,36
2017-04-08T07:24:21.178Z,40
2017-04-08T07:25:29.263Z,40
2017-04-08T07:26:37.345Z,44
2017-04-08T07:27:45.436Z,44
2017-04-08T07:28:53.579Z,48
2017-04-08T07:30:01.633Z,48
2017-04-08T07:31:09.686Z,48
2017-04-08T07:32:17.771Z,44
2017-04-08T07:33:25.853Z,44
2017-04-08T07:34:33.937Z,44
2017-04-08T07:35:42.022Z,44
2017-04-08T07:36:50.114Z,48
2017-04-08T07:37:58.191Z,48
2017-04-08T07:39:06.279Z,56
2017-04-08T07:40:14.363Z,56
2017-04-08T07:41:22.444Z,60
2017-04-08T07:42:30.871Z,60
2017-04-08T07:43:38.614Z,60
2017-04-08T07:44:46.703Z,60
2017-04-08T07:45:54.845Z,60
2017-04-08T07:47:02.874Z,60
2017-04-08T07:48:10.960Z,56
2017-04-08T07:49:19.050Z,52
2017-04-08T07:50:27.127Z,56
2017-04-08T07:51:35.215Z,56
2017-04-08T07:52:43.983Z,60
2017-04-08T07:53:51.380Z,56
2017-04-08T07:54:59.467Z,56
2017-04-08T07:57:15.632Z,52
2017-04-08T07:58:23.715Z,56
2017-04-08T07:59:31.802Z,56
2017-04-08T08:00:39.887Z,52
2017-04-08T08:01:47.967Z,52
2017-04-08T08:02:56.094Z,52
2017-04-08T08:04:04.145Z,48
2017-04-08T08:05:12.230Z,48
2017-04-08T08:06:20.311Z,44
2017-04-08T08:07:28.399Z,48
2017-04-08T08:08:36.529Z,48
2017-04-08T08:09:44.570Z,48
2017-04-08T08:10:53.355Z,44
2017-04-08T08:12:00.734Z,48
2017-04-08T08:13:08.821Z,48
2017-04-08T08:14:18.159Z,52
2017-04-08T08:15:25.256Z,52
2017-04-08T08:16:33.216Z,52
2017-04-08T08:17:41.157Z,48
2017-04-08T08:18:49.244Z,48
2017-04-08T08:19:57.335Z,48
2017-04-08T08:21:05.420Z,44
2017-04-08T08:22:13.502Z,44
2017-04-08T08:23:21.590Z,48
2017-04-08T08:24:29.683Z,48
2017-04-08T08:25:37.756Z,52
2017-04-08T08:26:45.846Z,48
2017-04-08T08:27:53.926Z,48
2017-04-08T08:29:02.010Z,48
2017-04-08T08:30:10.096Z,48
2017-04-08T08:31:18.180Z,48
2017-04-08T08:32:26.267Z,48
2017-04-08T08:33:34.344Z,48
2017-04-08T08:34:42.434Z,48
2017-04-08T08:35:50.519Z,48
2017-04-08T08:36:58.606Z,48
2017-04-08T08:38:06.688Z,48
2017-04-08T08:39:14.773Z,48
2017-04-08T08:40:22.858Z,48
2017-04-08T08:41:30.941Z,44
2017-04-08T08:42:39.031Z,48
2017-04-08T08:43:47.111Z,48
2017-04-08T08:44:55.191Z,48
2017-04-08T08:46:03.277Z,44
2017-04-08T08:47:11.360Z,48
2017-04-08T08:48:19.443Z,44
2017-04-08T08:49:27.524Z,48
2017-04-08T08:50:35.612Z,48
2017-04-08T08:51:43.697Z,48
2017-04-08T08:52:51.777Z,48
2017-04-08T08:53:59.864Z,48
2017-04-08T08:55:07.948Z,48
2017-04-08T08:56:16.033Z,48
2017-04-08T08:57:24.118Z,48
2017-04-08T08:58:32.198Z,48
2017-04-08T08:59:40.280Z,48
2017-04-08T09:00:48.363Z,48
2017-04-08T09:01:56.454Z,48
2017-04-08T09:03:04.538Z,48
2017-04-08T09:04:12.618Z,52
2017-04-08T09:05:20.703Z,48
2017-04-08T09:06:28.789Z,48
2017-04-08T09:07:36.880Z,48
2017-04-08T09:08:44.964Z,48
2017-04-08T09:09:53.040Z,52
2017-04-08T09:11:01.119Z,52
2017-04-08T09:12:09.205Z,52
2017-04-08T09:13:17.284Z,48
2017-04-08T09:14:25.373Z,48
2017-04-08T09:15:33.454Z,48
2017-04-08T09:16:41.537Z,52
2017-04-08T09:17:49.627Z,48
2017-04-08T09:18:57.710Z,48
2017-04-08T09:20:05.789Z,52
2017-04-08T09:21:13.872Z,52
2017-04-08T09:22:21.958Z,52
2017-04-08T09:23:30.042Z,52
2017-04-08T09:24:38.127Z,52
2017-04-08T09:25:46.211Z,52
2017-04-08T09:26:54.292Z,52
2017-04-08T09:28:02.375Z,48
2017-04-08T09:29:10.463Z,52
2017-04-08T09:30:18.546Z,52
2017-04-08T09:31:26.634Z,52
2017-04-08T09:32:34.708Z,52
2017-04-08T09:33:42.795Z,52
2017-04-08T09:34:50.880Z,52
2017-04-08T09:35:59.252Z,52
2017-04-08T09:37:07.045Z,52
2017-04-08T09:38:15.130Z,52
2017-04-08T09:39:23.212Z,52
2017-04-08T09:40:31.303Z,56
2017-04-08T09:41:39.385Z,56
2017-04-08T09:42:47.471Z,52
2017-04-08T09:43:55.553Z,56
2017-04-08T09:45:03.637Z,52
2017-04-08T09:46:11.721Z,52
2017-04-08T09:47:19.806Z,56
2017-04-08T09:48:27.889Z,52
2017-04-08T09:49:35.974Z,56
2017-04-08T09:50:44.058Z,56
2017-04-08T09:51:52.137Z,56
2017-04-08T09:53:00.224Z,56
2017-04-08T09:54:08.312Z,56
2017-04-08T09:55:16.391Z,52
2017-04-08T09:56:24.473Z,52
2017-04-08T09:57:32.560Z,52
2017-04-08T09:58:40.647Z,56
2017-04-08T09:59:48.731Z,56
2017-04-08T10:00:56.814Z,52
2017-04-08T10:02:04.898Z,52
2017-04-08T10:03:12.979Z,56
2017-04-08T10:04:21.059Z,56
2017-04-08T10:05:29.147Z,56
2017-04-08T10:06:37.232Z,56
2017-04-08T10:07:45.322Z,56
2017-04-08T10:08:53.407Z,56
2017-04-08T10:10:01.489Z,56
2017-04-08T10:11:09.573Z,52
2017-04-08T10:12:17.663Z,56
2017-04-08T10:13:25.751Z,56
2017-04-08T10:14:33.831Z,56
2017-04-08T10:15:41.908Z,56
2017-04-08T10:16:49.998Z,56
2017-04-08T10:17:58.081Z,56
2017-04-08T10:19:06.208Z,56
2017-04-08T10:20:14.243Z,56
2017-04-08T10:21:22.329Z,52
2017-04-08T10:22:30.417Z,56
2017-04-08T10:23:38.498Z,56
2017-04-08T10:24:46.585Z,56
2017-04-08T10:25:54.664Z,56
2017-04-08T10:27:02.745Z,56
2017-04-08T10:28:10.832Z,56
2017-04-08T10:29:18.919Z,56
2017-04-08T10:30:27.010Z,52
2017-04-08T10:31:35.093Z,52
2017-04-08T10:32:43.176Z,56
2017-04-08T10:33:51.264Z,56
2017-04-08T10:34:59.347Z,56
2017-04-08T10:36:07.431Z,56
2017-04-08T10:37:15.512Z,52
2017-04-08T10:38:23.595Z,52
2017-04-08T10:39:31.685Z,56
2017-04-08T10:40:39.768Z,52
2017-04-08T10:41:47.853Z,52
2017-04-08T10:42:55.930Z,52
2017-04-08T10:44:04.019Z,56
2017-04-08T10:45:12.103Z,56
2017-04-08T10:46:20.186Z,52
2017-04-08T10:47:28.265Z,56
2017-04-08T10:48:36.351Z,56
2017-04-08T10:49:44.440Z,52
2017-04-08T10:50:52.519Z,52
2017-04-08T10:52:00.609Z,52
2017-04-08T10:53:08.691Z,52
2017-04-08T10:54:16.769Z,52
2017-04-08T10:55:24.860Z,52
2017-04-08T10:56:32.941Z,52
2017-04-08T10:57:41.024Z,56
2017-04-08T10:58:49.107Z,52
2017-04-08T10:59:57.190Z,52
2017-04-08T11:01:05.277Z,52
2017-04-08T11:02:13.357Z,52
2017-04-08T11:03:21.440Z,52
2017-04-08T11:04:29.528Z,52
2017-04-08T11:05:37.623Z,52
2017-04-08T11:06:45.693Z,52
2017-04-08T11:07:53.780Z,52
2017-04-08T11:09:01.864Z,48
2017-04-08T11:10:09.948Z,52
2017-04-08T11:11:18.028Z,52
2017-04-08T11:12:26.110Z,48
2017-04-08T11:13:34.201Z,48
2017-04-08T11:14:42.284Z,52
2017-04-08T11:15:50.374Z,52
2017-04-08T11:16:58.458Z,48
2017-04-08T11:18:06.536Z,52
2017-04-08T11:19:14.622Z,52
2017-04-08T11:20:22.708Z,48
2017-04-08T11:21:30.793Z,48
2017-04-08T11:22:38.917Z,48
2017-04-08T11:23:46.963Z,52
2017-04-08T11:24:55.045Z,52
2017-04-08T11:26:03.141Z,52
2017-04-08T11:27:11.223Z,52
2017-04-08T11:28:19.302Z,48
2017-04-08T11:29:27.383Z,48
2017-04-08T11:30:35.466Z,48
2017-04-08T11:31:43.550Z,48
2017-04-08T11:32:51.636Z,48
2017-04-08T11:33:59.719Z,48
2017-04-08T11:35:07.803Z,48
2017-04-08T11:36:15.886Z,48
2017-04-08T11:37:24.379Z,48
2017-04-08T11:38:32.053Z,48
2017-04-08T11:39:40.206Z,48
2017-04-08T11:40:48.222Z,48
2017-04-08T11:41:56.302Z,48
2017-04-08T11:43:04.389Z,48
2017-04-08T11:44:12.474Z,48
2017-04-08T11:45:20.560Z,48
2017-04-08T11:46:28.649Z,48
2017-04-08T11:47:36.731Z,48
2017-04-08T11:48:44.818Z,44
2017-04-08T11:49:52.901Z,44
2017-04-08T11:51:00.989Z,48
2017-04-08T11:52:09.075Z,48
2017-04-08T11:53:17.153Z,44
2017-04-08T11:54:25.238Z,48
2017-04-08T11:55:33.325Z,48
2017-04-08T11:56:41.488Z,44
2017-04-08T11:57:49.494Z,48
2017-04-08T11:58:57.587Z,44
2017-04-08T12:00:05.670Z,44
2017-04-08T12:01:13.749Z,44
2017-04-08T12:02:21.830Z,44
2017-04-08T12:03:29.915Z,44
2017-04-08T12:04:37.996Z,44
2017-04-08T12:05:46.080Z,44
2017-04-08T12:06:54.184Z,44
2017-04-08T12:08:02.260Z,44
2017-04-08T12:09:10.349Z,44
2017-04-08T12:10:18.429Z,44
2017-04-08T12:11:26.522Z,44
2017-04-08T12:12:34.607Z,44
2017-04-08T12:13:42.742Z,40
2017-04-08T12:14:50.777Z,44
2017-04-08T12:15:58.860Z,44
2017-04-08T12:17:06.948Z,44
2017-04-08T12:18:15.029Z,44
2017-04-08T12:19:23.115Z,44
2017-04-08T12:20:31.211Z,44
2017-04-08T12:21:39.279Z,40
2017-04-08T12:22:47.385Z,44
2017-04-08T12:23:55.457Z,44
2017-04-08T12:25:03.561Z,44
2017-04-08T12:26:11.631Z,44
2017-04-08T12:27:19.720Z,44
2017-04-08T12:28:27.812Z,44
2017-04-08T12:29:35.902Z,44
2017-04-08T12:30:43.991Z,44
2017-04-08T12:31:52.072Z,40
2017-04-08T12:33:00.155Z,44
2017-04-08T12:34:08.242Z,44
2017-04-08T12:35:16.358Z,40
2017-04-08T12:36:24.414Z,40
2017-04-08T12:37:32.493Z,40
2017-04-08T12:38:40.580Z,40
2017-04-08T12:39:48.671Z,40
2017-04-08T12:40:56.747Z,40
2017-04-08T12:42:04.831Z,44
2017-04-08T12:43:12.918Z,40
2017-04-08T12:44:21.009Z,40
2017-04-08T12:45:29.085Z,40
2017-04-08T12:46:37.174Z,40
2017-04-08T12:47:45.258Z,40
2017-04-08T12:48:53.340Z,40
2017-04-08T12:50:01.436Z,40
2017-04-08T12:51:09.521Z,40
2017-04-08T12:52:17.604Z,40
2017-04-08T12:53:25.689Z,40
2017-04-08T12:54:33.781Z,36
2017-04-08T12:55:41.861Z,40
2017-04-08T12:56:49.946Z,40
2017-04-08T12:57:58.036Z,36
2017-04-08T12:59:06.126Z,40
2017-04-08T13:00:14.213Z,40
2017-04-08T13:01:22.294Z,40
2017-04-08T13:02:30.379Z,40
2017-04-08T13:03:38.460Z,36
2017-04-08T13:04:46.554Z,40
2017-04-08T13:05:54.637Z,40
2017-04-08T13:07:02.744Z,40
2017-04-08T13:08:10.804Z,36
2017-04-08T13:09:18.889Z,36
2017-04-08T13:10:26.976Z,40
2017-04-08T13:11:35.058Z,36
2017-04-08T13:12:43.142Z,36
2017-04-08T13:13:51.224Z,36
2017-04-08T13:14:59.316Z,40
2017-04-08T13:16:07.391Z,36
2017-04-08T13:17:15.477Z,36
2017-04-08T13:18:23.564Z,36
2017-04-08T13:19:31.653Z,36
2017-04-08T13:20:39.732Z,40
2017-04-08T13:21:47.819Z,36
2017-04-08T13:22:55.900Z,40
2017-04-08T13:24:03.987Z,40
2017-04-08T13:25:12.068Z,36
2017-04-08T13:26:20.154Z,36
2017-04-08T13:27:28.236Z,36
2017-04-08T13:28:36.321Z,40
2017-04-08T13:29:44.410Z,36
2017-04-08T13:30:52.508Z,36
2017-04-08T13:32:00.580Z,36
2017-04-08T13:33:08.659Z,36
2017-04-08T13:34:16.746Z,36
2017-04-08T13:35:24.830Z,36
2017-04-08T13:36:32.911Z,36
2017-04-08T13:37:40.998Z,36
2017-04-08T13:38:49.082Z,32
2017-04-08T13:39:57.162Z,32
2017-04-08T13:41:05.250Z,36
2017-04-08T13:42:13.334Z,36
2017-04-08T13:43:21.423Z,36
2017-04-08T13:44:29.502Z,36
2017-04-08T13:45:37.588Z,36
2017-04-08T13:46:45.694Z,36
2017-04-08T13:47:53.757Z,32
2017-04-08T13:49:01.842Z,36
2017-04-08T13:50:09.927Z,36
2017-04-08T13:51:18.006Z,36
2017-04-08T13:52:26.091Z,36
2017-04-08T13:53:34.223Z,36
2017-04-08T13:54:42.263Z,32
2017-04-08T13:55:50.389Z,32
2017-04-08T13:56:58.430Z,36
2017-04-08T13:58:06.517Z,36
2017-04-08T13:59:14.603Z,36
2017-04-08T14:00:22.684Z,36
2017-04-08T14:01:30.774Z,32
2017-04-08T14:02:38.860Z,32
2017-04-08T14:03:46.938Z,32
2017-04-08T14:04:55.026Z,32
2017-04-08T14:06:03.112Z,32
2017-04-08T14:07:11.190Z,32
2017-04-08T14:08:19.275Z,36
2017-04-08T14:09:27.364Z,32
2017-04-08T14:10:35.454Z,36
2017-04-08T14:11:43.531Z,36
2017-04-08T14:12:51.618Z,36
2017-04-08T14:13:59.705Z,36
2017-04-08T14:15:07.784Z,32
2017-04-08T14:16:15.871Z,36
2017-04-08T14:17:23.958Z,36
2017-04-08T14:18:32.056Z,36
2017-04-08T14:19:40.141Z,36
2017-04-08T14:20:48.227Z,36
2017-04-08T14:21:56.313Z,36
2017-04-08T14:23:04.400Z,36
2017-04-08T14:24:12.480Z,40
2017-04-08T14:25:20.569Z,36
2017-04-08T14:26:28.651Z,40
2017-04-08T14:27:36.732Z,40
2017-04-08T14:28:44.819Z,40
2017-04-08T14:29:52.905Z,36
2017-04-08T14:31:00.992Z,36
2017-04-08T14:32:09.076Z,36
2017-04-08T14:33:17.160Z,36
2017-04-08T14:34:25.247Z,36
2017-04-08T14:35:33.328Z,40
2017-04-08T14:36:41.414Z,36
2017-04-08T14:37:49.500Z,36
2017-04-08T14:38:57.578Z,36
2017-04-08T14:40:05.665Z,36
2017-04-08T14:41:13.749Z,36
2017-04-08T14:42:21.831Z,36
2017-04-08T14:43:29.916Z,36
2017-04-08T14:44:38.008Z,36
2017-04-08T14:45:46.090Z,32
2017-04-08T14:46:54.176Z,36
2017-04-08T14:48:02.261Z,32
2017-04-08T14:49:10.346Z,32
2017-04-08T14:50:18.425Z,36
2017-04-08T14:51:26.508Z,32
2017-04-08T14:52:34.598Z,36
2017-04-08T14:53:42.681Z,32
2017-04-08T14:54:50.766Z,32
2017-04-08T14:55:58.859Z,32
2017-04-08T14:57:06.941Z,36
2017-04-08T14:58:15.034Z,36
2017-04-08T14:59:23.167Z,32
2017-04-08T15:00:31.205Z,32
2017-04-08T15:01:39.297Z,32
2017-04-08T15:02:47.381Z,32
2017-04-08T15:03:55.467Z,32
2017-04-08T15:05:03.552Z,32
2017-04-08T15:06:11.631Z,32
2017-04-08T15:07:19.718Z,32
2017-04-08T15:08:27.805Z,32
2017-04-08T15:09:35.889Z,28
2017-04-08T15:10:43.982Z,28
2017-04-08T15:11:52.058Z,28
2017-04-08T15:13:00.145Z,28
2017-04-08T15:14:08.224Z,28
2017-04-08T15:15:16.309Z,28
2017-04-08T15:16:24.487Z,28
2017-04-08T15:17:32.476Z,28
2017-04-08T15:18:40.563Z,28
2017-04-08T15:19:48.662Z,28
2017-04-08T15:20:56.742Z,28
2017-04-08T15:22:04.830Z,28
2017-04-08T15:23:12.912Z,24
2017-04-08T15:24:20.999Z,28
2017-04-08T15:25:29.086Z,28
2017-04-08T15:26:37.167Z,24
2017-04-08T15:27:45.255Z,28
2017-04-08T15:28:53.340Z,28
2017-04-08T15:30:01.427Z,24
2017-04-08T15:31:09.517Z,24
2017-04-08T15:32:17.596Z,24
2017-04-08T15:33:25.755Z,24
2017-04-08T15:34:33.764Z,24
2017-04-08T15:35:41.860Z,24
2017-04-08T15:36:49.940Z,24
2017-04-08T15:37:58.025Z,24
2017-04-08T15:39:06.114Z,24
2017-04-08T15:40:14.197Z,24
2017-04-08T15:41:22.281Z,24
2017-04-08T15:42:30.364Z,24
2017-04-08T15:43:38.454Z,24
2017-04-08T15:44:46.539Z,24
2017-04-08T15:45:54.623Z,20
2017-04-08T15:47:02.708Z,20
2017-04-08T15:48:10.799Z,24
2017-04-08T15:49:18.879Z,24
2017-04-08T15:50:26.961Z,24
2017-04-08T15:51:35.049Z,24
2017-04-08T15:52:43.130Z,20
2017-04-08T15:53:51.215Z,20
2017-04-08T15:54:59.347Z,24
2017-04-08T15:56:07.392Z,20
2017-04-08T15:57:15.483Z,20
2017-04-08T15:58:23.564Z,20
2017-04-08T15:59:31.655Z,20
2017-04-08T16:00:39.739Z,24
2017-04-08T16:01:47.819Z,20
2017-04-08T16:02:55.907Z,20
2017-04-08T16:04:03.993Z,20
2017-04-08T16:05:12.075Z,20
2017-04-08T16:06:20.165Z,20
2017-04-08T16:07:28.252Z,20
2017-04-08T16:08:36.334Z,20
2017-04-08T16:09:44.420Z,20
2017-04-08T16:10:52.511Z,20
2017-04-08T16:12:00.591Z,20
2017-04-08T16:13:08.675Z,20
2017-04-08T16:14:16.764Z,20
2017-04-08T16:15:24.847Z,20
2017-04-08T16:16:32.928Z,20
2017-04-08T16:17:41.012Z,20
2017-04-08T16:18:49.103Z,20
2017-04-08T16:19:57.190Z,20
2017-04-08T16:21:05.276Z,20
2017-04-08T16:22:13.358Z,20
2017-04-08T16:23:21.446Z,20
2017-04-08T16:24:29.529Z,20